createdAt,value
2022-09-25T00:00:28.949Z,5.60
2022-09-25T00:02:57.060Z,5.23
2022-09-25T00:05:27.459Z,5.53
2022-09-25T00:07:57.526Z,4.63
2022-09-25T00:10:31.934Z,4.97
2022-09-25T00:13:12.078Z,4.73
2022-09-25T00:15:50.254Z,5.30
2022-09-25T00:18:38.654Z,6.10
2022-09-25T00:21:09.788Z,5.70
2022-09-25T00:23:40.453Z,5.87
2022-09-25T00:26:09.255Z,6.30
2022-09-25T00:28:39.937Z,5.50
2022-09-25T00:31:18.609Z,5.20
2022-09-25T00:33:51.992Z,5.60
2022-09-25T00:36:22.558Z,5.53
2022-09-25T00:39:01.264Z,5.30
2022-09-25T00:41:32.166Z,5.67
2022-09-25T00:44:04.920Z,5.90
2022-09-25T00:46:53.154Z,6.33
2022-09-25T00:49:34.983Z,7.03
2022-09-25T00:52:14.215Z,5.80
2022-09-25T00:54:56.978Z,5.87
2022-09-25T00:57:31.556Z,6.10
2022-09-25T01:00:10.095Z,6.00
2022-09-25T01:02:43.198Z,5.73
2022-09-25T01:05:21.681Z,6.03
2022-09-25T01:07:58.058Z,5.47
2022-09-25T01:10:31.619Z,6.03
2022-09-25T01:13:08.471Z,5.30
2022-09-25T01:15:52.604Z,5.93
2022-09-25T01:19:05.015Z,5.50
2022-09-25T01:22:05.703Z,5.37
2022-09-25T01:25:10.373Z,5.20
2022-09-25T01:27:56.169Z,5.23
2022-09-25T01:30:23.434Z,5.60
2022-09-25T01:33:10.134Z,5.37
2022-09-25T01:35:52.449Z,5.37
2022-09-25T01:38:34.374Z,5.00
2022-09-25T01:41:19.959Z,5.80
2022-09-25T01:44:01.129Z,5.20
2022-09-25T01:46:37.575Z,5.23
2022-09-25T01:49:12.377Z,5.60
2022-09-25T01:51:44.619Z,5.63
2022-09-25T01:54:16.459Z,5.70
2022-09-25T01:56:59.606Z,5.77
2022-09-25T01:59:44.402Z,6.17
2022-09-25T02:02:16.065Z,6.10
2022-09-25T02:05:14.870Z,6.73
2022-09-25T02:07:47.615Z,7.57
2022-09-25T02:10:32.574Z,6.43
2022-09-25T02:13:08.854Z,6.03
2022-09-25T02:15:41.275Z,5.83
2022-09-25T02:18:34.859Z,6.47
2022-09-25T02:21:37.322Z,5.67
2022-09-25T02:24:21.805Z,5.20
2022-09-25T02:26:50.461Z,5.50
2022-09-25T02:29:19.911Z,5.50
2022-09-25T02:34:14.711Z,5.77
2022-09-25T02:36:52.645Z,5.90
2022-09-25T02:39:28.134Z,6.17
2022-09-25T02:42:50.420Z,6.10
2022-09-25T02:45:56.241Z,6.10
2022-09-25T02:48:57.299Z,6.70
2022-09-25T02:52:07.802Z,6.17
2022-09-25T02:55:05.458Z,5.53
2022-09-25T02:57:56.279Z,6.87
2022-09-25T03:00:24.954Z,6.80
2022-09-25T03:03:08.364Z,7.67
2022-09-25T03:05:44.389Z,7.03
2022-09-25T03:08:33.471Z,7.33
2022-09-25T03:11:04.065Z,7.60
2022-09-25T03:13:33.538Z,6.60
2022-09-25T03:16:38.330Z,7.57
2022-09-25T03:19:18.697Z,7.20
2022-09-25T03:21:46.739Z,7.30
2022-09-25T03:24:25.583Z,7.20
2022-09-25T03:27:01.759Z,7.33
2022-09-25T03:29:40.134Z,7.23
2022-09-25T03:32:07.938Z,7.10
2022-09-25T03:34:37.158Z,6.67
2022-09-25T03:37:08.319Z,6.80
2022-09-25T03:39:44.779Z,7.07
2022-09-25T03:42:35.344Z,6.50
2022-09-25T03:45:03.763Z,6.80
2022-09-25T03:47:32.054Z,7.57
2022-09-25T03:50:00.748Z,6.90
2022-09-25T03:52:29.435Z,6.70
2022-09-25T03:54:59.158Z,7.13
2022-09-25T03:57:27.402Z,6.60
2022-09-25T04:00:03.654Z,6.73
2022-09-25T04:02:33.048Z,7.00
2022-09-25T04:05:05.239Z,6.77
2022-09-25T04:07:39.720Z,7.07
2022-09-25T04:10:08.489Z,7.00
2022-09-25T04:12:38.921Z,6.60
2022-09-25T04:15:19.119Z,7.67
2022-09-25T04:17:48.610Z,7.27
2022-09-25T04:20:16.990Z,6.90
2022-09-25T04:22:50.900Z,7.67
2022-09-25T04:25:24.546Z,7.80
2022-09-25T04:27:58.739Z,7.07
2022-09-25T04:30:29.514Z,7.43
2022-09-25T04:33:19.913Z,7.10
2022-09-25T04:35:49.700Z,7.50
2022-09-25T04:38:18.654Z,8.17
2022-09-25T04:40:48.168Z,7.77
2022-09-25T04:43:19.724Z,8.20
2022-09-25T04:45:49.399Z,7.50
2022-09-25T04:48:17.643Z,8.20
2022-09-25T04:50:52.056Z,7.77
2022-09-25T04:53:20.942Z,8.43
2022-09-25T04:55:51.587Z,8.00
2022-09-25T04:58:28.804Z,7.73
2022-09-25T05:01:11.505Z,8.33
2022-09-25T05:03:40.166Z,8.23
2022-09-25T05:06:08.659Z,7.87
2022-09-25T05:08:37.204Z,7.27
2022-09-25T05:11:11.412Z,8.33
2022-09-25T05:13:44.158Z,8.13
2022-09-25T05:16:20.329Z,8.27
2022-09-25T05:18:49.515Z,8.77
2022-09-25T05:21:19.008Z,8.17
2022-09-25T05:23:47.879Z,8.60
2022-09-25T05:26:16.078Z,8.80
2022-09-25T05:28:46.685Z,8.93
2022-09-25T05:31:15.934Z,8.07
2022-09-25T05:33:44.543Z,8.53
2022-09-25T05:36:21.029Z,8.47
2022-09-25T05:38:49.299Z,8.80
2022-09-25T05:41:18.881Z,8.10
2022-09-25T05:43:50.459Z,8.50
2022-09-25T05:46:28.927Z,9.30
2022-09-25T05:49:18.879Z,8.27
2022-09-25T05:51:48.618Z,8.40
2022-09-25T05:54:19.013Z,8.20
2022-09-25T05:56:48.534Z,7.80
2022-09-25T05:59:26.999Z,8.37
2022-09-25T06:01:56.841Z,8.70
2022-09-25T06:04:25.629Z,8.23
2022-09-25T06:06:54.029Z,8.17
2022-09-25T06:09:24.368Z,8.90
2022-09-25T06:11:54.514Z,8.50
2022-09-25T06:14:22.796Z,10.03
2022-09-25T06:16:50.910Z,9.60
2022-09-25T06:19:18.009Z,10.33
2022-09-25T06:21:53.573Z,10.73
2022-09-25T06:24:22.974Z,9.83
2022-09-25T06:26:51.859Z,10.07
2022-09-25T06:29:20.624Z,10.27
2022-09-25T06:31:51.114Z,9.57
2022-09-25T06:34:27.463Z,9.47
2022-09-25T06:36:58.155Z,8.67
2022-09-25T06:39:30.278Z,8.70
2022-09-25T06:41:59.596Z,9.00
2022-09-25T06:44:38.254Z,8.20
2022-09-25T06:47:06.827Z,8.27
2022-09-25T06:49:37.185Z,9.40
2022-09-25T06:52:05.806Z,8.67
2022-09-25T06:54:34.839Z,8.33
2022-09-25T06:57:03.009Z,8.80
2022-09-25T06:59:31.694Z,8.70
2022-09-25T07:02:23.330Z,10.03
2022-09-25T07:04:55.325Z,11.57
2022-09-25T07:07:25.075Z,11.83
2022-09-25T07:09:53.473Z,14.83
2022-09-25T07:12:23.403Z,13.03
2022-09-25T07:14:53.825Z,13.67
2022-09-25T07:17:22.148Z,17.87
2022-09-25T07:19:49.138Z,10.97
2022-09-25T07:22:18.534Z,10.80
2022-09-25T07:24:48.925Z,11.10
2022-09-25T07:27:26.199Z,11.00
2022-09-25T07:29:57.634Z,11.63
2022-09-25T07:32:24.685Z,11.87
2022-09-25T07:34:52.434Z,10.30
2022-09-25T07:37:21.813Z,11.80
2022-09-25T07:40:07.372Z,9.80
2022-09-25T07:42:36.515Z,11.43
2022-09-25T07:45:15.034Z,11.17
2022-09-25T07:47:54.614Z,11.00
2022-09-25T07:50:24.456Z,10.33
2022-09-25T07:52:54.258Z,12.00
2022-09-25T07:55:22.986Z,11.30
2022-09-25T07:57:58.519Z,11.97
2022-09-25T08:00:28.669Z,11.80
2022-09-25T08:03:00.050Z,13.27
2022-09-25T08:05:35.973Z,12.83
2022-09-25T08:08:04.951Z,13.57
2022-09-25T08:10:42.673Z,13.03
2022-09-25T08:13:18.680Z,12.83
2022-09-25T08:15:48.794Z,12.63
2022-09-25T08:18:22.863Z,12.77
2022-09-25T08:20:56.023Z,12.17
2022-09-25T08:23:26.339Z,11.00
2022-09-25T08:25:56.215Z,11.10
2022-09-25T08:28:24.340Z,10.77
2022-09-25T08:31:01.636Z,10.77
2022-09-25T08:33:29.111Z,10.63
2022-09-25T08:36:08.059Z,11.17
2022-09-25T08:38:36.489Z,12.33
2022-09-25T08:41:29.419Z,12.17
2022-09-25T08:44:34.818Z,11.07
2022-09-25T08:47:59.719Z,11.60
2022-09-25T08:50:34.148Z,10.50
2022-09-25T08:53:24.070Z,11.53
2022-09-25T08:56:17.886Z,11.40
2022-09-25T08:59:31.496Z,10.37
2022-09-25T09:02:21.615Z,10.33
2022-09-25T09:05:05.206Z,11.43
2022-09-25T09:07:39.755Z,11.93
2022-09-25T09:10:54.505Z,11.27
2022-09-25T09:13:47.976Z,11.87
2022-09-25T09:16:26.690Z,12.23
2022-09-25T09:19:03.399Z,12.17
2022-09-25T09:21:47.516Z,12.17
2022-09-25T09:24:25.884Z,10.97
2022-09-25T09:27:27.084Z,11.10
2022-09-25T09:30:16.040Z,10.83
2022-09-25T09:33:20.254Z,8.80
2022-09-25T09:36:11.969Z,8.40
2022-09-25T09:38:46.334Z,9.57
2022-09-25T09:41:44.759Z,9.13
2022-09-25T09:44:29.768Z,8.47
2022-09-25T09:47:42.029Z,8.77
2022-09-25T09:50:29.761Z,7.83
2022-09-25T09:53:07.969Z,8.23
2022-09-25T09:56:01.117Z,8.00
2022-09-25T09:59:11.215Z,7.90
2022-09-25T10:01:45.377Z,7.57
2022-09-25T10:04:23.909Z,7.13
2022-09-25T10:07:08.816Z,7.73
2022-09-25T10:09:45.573Z,6.60
2022-09-25T10:12:20.909Z,6.87
2022-09-25T10:14:57.658Z,6.77
2022-09-25T10:17:28.445Z,6.33
2022-09-25T10:20:15.564Z,7.10
2022-09-25T10:22:47.478Z,7.60
2022-09-25T10:25:57.090Z,8.87
2022-09-25T10:28:36.695Z,8.57
2022-09-25T10:31:09.456Z,7.40
2022-09-25T10:33:37.874Z,7.83
2022-09-25T10:36:06.073Z,7.83
2022-09-25T10:38:56.673Z,8.73
2022-09-25T10:41:46.480Z,9.07
2022-09-25T10:44:35.624Z,8.40
2022-09-25T10:47:48.595Z,8.77
2022-09-25T10:50:37.129Z,7.70
2022-09-25T10:53:06.282Z,7.40
2022-09-25T10:55:53.678Z,7.17
2022-09-25T10:58:39.159Z,6.80
2022-09-25T11:01:18.185Z,6.17
2022-09-25T11:04:37.109Z,6.73
2022-09-25T11:07:19.798Z,7.30
2022-09-25T11:09:59.960Z,7.33
2022-09-25T11:12:32.709Z,7.07
2022-09-25T11:15:05.961Z,7.07
2022-09-25T11:17:52.430Z,6.40
2022-09-25T11:20:35.864Z,7.10
2022-09-25T11:23:40.979Z,7.00
2022-09-25T11:26:35.835Z,6.70
2022-09-25T11:29:16.967Z,6.57
2022-09-25T11:32:18.134Z,6.03
2022-09-25T11:35:40.028Z,6.85
2022-09-25T11:39:10.621Z,6.63
2022-09-25T11:42:14.760Z,6.78
2022-09-25T11:45:02.109Z,6.32
2022-09-25T11:48:20.474Z,6.45
2022-09-25T11:54:42.634Z,6.43
2022-09-25T11:57:52.695Z,5.90
2022-09-25T12:00:48.074Z,6.43
2022-09-25T12:04:00.121Z,7.03
2022-09-25T12:07:14.000Z,7.37
2022-09-25T12:10:19.219Z,7.97
2022-09-25T12:13:41.573Z,7.83
2022-09-25T12:16:20.209Z,7.87
2022-09-25T12:19:47.134Z,7.63
2022-09-25T12:29:11.167Z,7.05
2022-09-25T12:31:46.434Z,6.30
2022-09-25T12:35:00.507Z,25.88
2022-09-25T12:38:01.128Z,6.57
2022-09-25T12:40:40.664Z,5.45
2022-09-25T12:43:48.574Z,6.32
2022-09-25T12:46:43.554Z,5.82
2022-09-25T12:49:16.134Z,6.15
2022-09-25T12:51:55.143Z,6.53
2022-09-25T12:54:41.414Z,7.03
2022-09-25T12:57:29.614Z,6.75
2022-09-25T13:00:12.789Z,6.72
2022-09-25T13:03:14.585Z,6.53
2022-09-25T13:06:16.924Z,6.50
2022-09-25T13:09:18.784Z,6.15
2022-09-25T13:12:02.230Z,6.55
2022-09-25T13:14:52.975Z,5.93
2022-09-25T13:17:23.840Z,5.88
2022-09-25T13:19:52.985Z,6.53
2022-09-25T13:22:28.498Z,6.35
2022-09-25T13:25:18.179Z,5.78
2022-09-25T13:27:48.734Z,6.30
2022-09-25T13:30:29.015Z,5.78
2022-09-25T13:33:38.792Z,5.53
2022-09-25T13:36:17.375Z,5.57
2022-09-25T13:39:08.033Z,5.25
2022-09-25T13:41:39.413Z,5.70
2022-09-25T13:44:43.805Z,5.43
2022-09-25T13:47:33.885Z,5.75
2022-09-25T13:50:24.329Z,5.55
2022-09-25T13:53:20.472Z,5.38
2022-09-25T13:56:04.958Z,4.80
2022-09-25T13:59:03.643Z,5.45
2022-09-25T14:01:38.205Z,5.03
2022-09-25T14:05:00.874Z,5.40
2022-09-25T14:07:30.347Z,5.30
2022-09-25T14:10:02.867Z,5.35
2022-09-25T14:12:49.242Z,4.90
2022-09-25T14:15:36.399Z,5.10
2022-09-25T14:18:24.677Z,4.35
2022-09-25T14:21:00.464Z,4.20
2022-09-25T14:23:35.135Z,4.30
2022-09-25T14:26:20.168Z,4.25
2022-09-25T14:28:51.698Z,5.20
2022-09-25T14:31:43.759Z,4.70
2022-09-25T14:34:32.710Z,4.00
2022-09-25T14:37:32.441Z,4.20
2022-09-25T14:40:22.972Z,3.70
2022-09-25T14:43:29.414Z,3.65
2022-09-25T14:46:12.708Z,3.60
2022-09-25T14:49:07.280Z,3.78
2022-09-25T14:51:45.042Z,3.85
2022-09-25T14:54:27.300Z,3.38
2022-09-25T14:56:58.159Z,3.05
2022-09-25T14:59:59.873Z,3.38
2022-09-25T15:02:44.448Z,3.60
2022-09-25T15:05:35.089Z,3.35
2022-09-25T15:08:21.889Z,3.70
2022-09-25T15:10:49.480Z,3.20
2022-09-25T15:13:24.624Z,3.80
2022-09-25T15:16:17.601Z,3.65
2022-09-25T15:18:51.543Z,3.90
2022-09-25T15:21:35.717Z,4.07
2022-09-25T15:24:10.907Z,3.28
2022-09-25T15:26:54.178Z,3.35
2022-09-25T15:29:45.740Z,3.63
2022-09-25T15:32:29.521Z,3.23
2022-09-25T15:35:11.789Z,3.30
2022-09-25T15:37:39.564Z,3.20
2022-09-25T15:40:29.335Z,3.70
2022-09-25T15:42:59.814Z,3.43
2022-09-25T15:46:07.796Z,3.93
2022-09-25T15:48:58.068Z,4.30
2022-09-25T15:51:36.171Z,4.83
2022-09-25T15:54:42.293Z,5.03
2022-09-25T15:57:15.386Z,4.83
2022-09-25T16:00:12.635Z,5.10
2022-09-25T16:03:16.755Z,5.40
2022-09-25T16:05:57.834Z,5.60
2022-09-25T16:08:33.833Z,5.30
2022-09-25T16:11:17.661Z,5.70
2022-09-25T16:13:51.664Z,5.77
2022-09-25T16:16:36.388Z,6.07
2022-09-25T16:19:32.275Z,5.93
2022-09-25T16:22:15.154Z,5.80
2022-09-25T16:24:54.234Z,6.37
2022-09-25T16:27:32.274Z,6.83
2022-09-25T16:30:10.245Z,6.60
2022-09-25T16:32:42.914Z,6.80
2022-09-25T16:35:40.660Z,7.37
2022-09-25T16:38:41.638Z,6.80
2022-09-25T16:41:28.508Z,6.73
2022-09-25T16:44:18.390Z,8.20
2022-09-25T16:47:02.443Z,9.47
2022-09-25T16:49:34.704Z,8.20
2022-09-25T16:52:11.989Z,7.60
2022-09-25T16:54:49.069Z,7.93
2022-09-25T16:57:20.032Z,7.33
2022-09-25T16:59:56.870Z,7.50
2022-09-25T17:02:37.303Z,8.20
2022-09-25T17:05:13.934Z,9.23
2022-09-25T17:07:43.386Z,8.97
2022-09-25T17:10:20.068Z,8.73
2022-09-25T17:12:54.490Z,9.33
2022-09-25T17:15:30.880Z,10.30
2022-09-25T17:18:05.275Z,8.23
2022-09-25T17:20:34.206Z,8.10
2022-09-25T17:23:05.259Z,8.70
2022-09-25T17:26:01.893Z,7.67
2022-09-25T17:28:33.456Z,8.13
2022-09-25T17:31:04.506Z,9.13
2022-09-25T17:33:33.058Z,8.77
2022-09-25T17:36:05.922Z,10.30
2022-09-25T17:38:41.831Z,10.70
2022-09-25T17:41:41.531Z,11.57
2022-09-25T17:44:17.769Z,9.50
2022-09-25T17:46:52.129Z,9.73
2022-09-25T17:49:23.770Z,10.73
2022-09-25T17:51:55.869Z,11.43
2022-09-25T17:54:24.395Z,13.53
2022-09-25T17:56:53.878Z,10.23
2022-09-25T17:59:23.930Z,12.00
2022-09-25T18:01:53.823Z,15.27
2022-09-25T18:04:28.388Z,13.37
2022-09-25T18:07:02.281Z,12.30
2022-09-25T18:09:29.280Z,11.00
2022-09-25T18:12:07.326Z,11.80
2022-09-25T18:14:44.547Z,12.17
2022-09-25T18:17:15.208Z,10.87
2022-09-25T18:20:04.046Z,11.70
2022-09-25T18:22:34.510Z,12.00
2022-09-25T18:25:02.964Z,10.77
2022-09-25T18:27:34.074Z,10.60
2022-09-25T18:30:11.499Z,10.83
2022-09-25T18:32:42.638Z,10.43
2022-09-25T18:35:14.339Z,9.80
2022-09-25T18:37:41.934Z,8.93
2022-09-25T18:40:19.413Z,9.67
2022-09-25T18:42:48.417Z,9.63
2022-09-25T18:45:18.563Z,10.33
2022-09-25T18:47:46.974Z,10.33
2022-09-25T18:50:20.942Z,11.17
2022-09-25T18:52:50.206Z,15.40
2022-09-25T18:56:11.892Z,12.17
2022-09-25T18:58:48.326Z,11.87
2022-09-25T19:01:18.116Z,11.33
2022-09-25T19:03:53.359Z,10.70
2022-09-25T19:06:29.354Z,11.33
2022-09-25T19:08:58.897Z,9.57
2022-09-25T19:11:28.288Z,10.10
2022-09-25T19:14:04.871Z,10.00
2022-09-25T19:16:38.514Z,9.13
2022-09-25T19:19:08.612Z,9.90
2022-09-25T19:21:39.065Z,10.93
2022-09-25T19:24:09.251Z,10.13
2022-09-25T19:26:44.838Z,9.40
2022-09-25T19:29:20.434Z,9.67
2022-09-25T19:31:56.334Z,9.53
2022-09-25T19:34:24.255Z,8.80
2022-09-25T19:36:55.393Z,9.93
2022-09-25T19:39:31.360Z,15.47
2022-09-25T19:42:02.893Z,17.50
2022-09-25T19:44:34.309Z,12.20
2022-09-25T19:47:04.234Z,10.77
2022-09-25T19:49:39.919Z,10.67
2022-09-25T19:52:09.819Z,11.03
2022-09-25T19:54:39.090Z,10.43
2022-09-25T19:57:09.411Z,10.23
2022-09-25T19:59:37.589Z,12.37
2022-09-25T20:02:07.801Z,11.87
2022-09-25T20:04:39.000Z,11.17
2022-09-25T20:07:08.979Z,11.27
2022-09-25T20:09:39.914Z,10.80
2022-09-25T20:12:17.740Z,10.67
2022-09-25T20:14:47.179Z,10.73
2022-09-25T20:17:18.062Z,10.43
2022-09-25T20:19:48.533Z,9.07
2022-09-25T20:22:19.169Z,9.37
2022-09-25T20:24:48.820Z,10.33
2022-09-25T20:27:20.986Z,10.00
2022-09-25T20:29:54.749Z,10.53
2022-09-25T20:32:27.141Z,13.00
2022-09-25T20:35:03.176Z,11.30
2022-09-25T20:37:43.124Z,13.60
2022-09-25T20:40:11.726Z,11.93
2022-09-25T20:42:49.236Z,11.57
2022-09-25T20:45:16.470Z,11.70
2022-09-25T20:47:48.167Z,11.40
2022-09-25T20:50:19.424Z,11.70
2022-09-25T20:52:46.790Z,13.70
2022-09-25T20:55:23.155Z,11.60
2022-09-25T20:57:55.474Z,11.20
2022-09-25T21:00:24.112Z,11.23
2022-09-25T21:02:54.649Z,12.07
2022-09-25T21:05:23.585Z,11.83
2022-09-25T21:07:59.494Z,12.57
2022-09-25T21:10:28.815Z,11.10
2022-09-25T21:13:04.541Z,9.93
2022-09-25T21:15:42.290Z,9.60
2022-09-25T21:18:12.976Z,11.07
2022-09-25T21:20:49.923Z,11.57
2022-09-25T21:23:19.215Z,10.83
2022-09-25T21:25:49.736Z,10.73
2022-09-25T21:28:25.874Z,10.87
2022-09-25T21:30:56.634Z,11.40
2022-09-25T21:33:25.154Z,11.70
2022-09-25T21:35:57.159Z,11.80
2022-09-25T21:38:25.929Z,13.53
2022-09-25T21:41:23.893Z,13.37
2022-09-25T21:44:00.409Z,12.83
2022-09-25T21:46:31.346Z,14.53
2022-09-25T21:49:04.599Z,14.47
2022-09-25T21:51:38.434Z,13.37
2022-09-25T21:54:09.169Z,12.37
2022-09-25T21:56:38.369Z,13.73
2022-09-25T21:59:09.899Z,11.83
2022-09-25T22:01:39.701Z,12.83
2022-09-25T22:04:13.811Z,13.10
2022-09-25T22:06:50.015Z,13.43
2022-09-25T22:09:23.421Z,13.37
2022-09-25T22:11:53.775Z,12.67
2022-09-25T22:14:30.189Z,12.37
2022-09-25T22:16:58.880Z,11.90
2022-09-25T22:19:29.953Z,12.43
2022-09-25T22:22:00.575Z,11.27
2022-09-25T22:24:31.434Z,14.33
2022-09-25T22:27:09.681Z,14.30
2022-09-25T22:29:37.970Z,12.83
2022-09-25T22:32:07.399Z,12.60
2022-09-25T22:34:36.330Z,12.50
2022-09-25T22:37:04.614Z,13.07
2022-09-25T22:39:33.994Z,11.50
2022-09-25T22:42:05.049Z,11.53
2022-09-25T22:44:35.676Z,10.73
2022-09-25T22:47:05.878Z,10.60
2022-09-25T22:49:42.969Z,10.60
2022-09-25T22:52:13.385Z,10.27
2022-09-25T22:54:43.864Z,10.73
2022-09-25T22:57:14.191Z,10.67
2022-09-25T22:59:44.689Z,9.93
2022-09-25T23:02:20.251Z,10.93
2022-09-25T23:04:55.111Z,10.87
2022-09-25T23:07:33.414Z,11.53
2022-09-25T23:10:04.526Z,11.57
2022-09-25T23:12:36.554Z,11.43
2022-09-25T23:15:06.592Z,11.57
2022-09-25T23:17:36.694Z,13.67
2022-09-25T23:20:16.809Z,12.10
2022-09-25T23:22:44.193Z,11.10
2022-09-25T23:25:14.344Z,12.20
2022-09-25T23:27:48.275Z,11.53
2022-09-25T23:30:21.104Z,12.47
2022-09-25T23:32:51.239Z,11.57
2022-09-25T23:35:19.266Z,13.60
2022-09-25T23:37:47.969Z,13.63
2022-09-25T23:40:16.858Z,14.13
2022-09-25T23:42:46.629Z,13.23
2022-09-25T23:45:18.089Z,14.20
2022-09-25T23:47:48.102Z,14.50
2022-09-25T23:50:18.729Z,13.90
2022-09-25T23:52:47.888Z,13.83
2022-09-25T23:55:17.791Z,14.77
2022-09-25T23:57:49.198Z,14.37
